createdAt,value
2023-03-02T00:02:01.844Z,19.02
2023-03-02T00:04:35.639Z,18.80
2023-03-02T00:07:07.988Z,19.17
2023-03-02T00:09:38.674Z,18.33
2023-03-02T00:12:10.536Z,19.25
2023-03-02T00:14:42.941Z,17.95
2023-03-02T00:17:13.098Z,18.17
2023-03-02T00:19:44.770Z,18.95
2023-03-02T00:22:14.591Z,19.05
2023-03-02T00:24:44.358Z,18.63
2023-03-02T00:27:14.123Z,19.13
2023-03-02T00:29:46.517Z,19.27
2023-03-02T00:32:18.136Z,19.10
2023-03-02T00:34:47.970Z,18.80
2023-03-02T00:37:17.791Z,19.80
2023-03-02T00:39:47.835Z,18.20
2023-03-02T00:42:17.619Z,19.02
2023-03-02T00:44:50.078Z,19.02
2023-03-02T00:47:19.903Z,20.00
2023-03-02T00:49:49.684Z,17.73
2023-03-02T00:52:19.875Z,18.90
2023-03-02T00:54:49.671Z,20.33
2023-03-02T00:57:19.723Z,19.02
2023-03-02T00:59:52.143Z,20.20
2023-03-02T01:02:23.293Z,20.13
2023-03-02T01:04:53.329Z,19.58
2023-03-02T01:07:24.996Z,19.38
2023-03-02T01:09:55.046Z,19.30
2023-03-02T01:12:24.819Z,19.63
2023-03-02T01:14:57.356Z,20.75
2023-03-02T01:17:27.274Z,20.23
2023-03-02T01:19:57.326Z,21.83
2023-03-02T01:22:27.199Z,19.63
2023-03-02T01:24:56.985Z,19.92
2023-03-02T01:27:26.742Z,20.55
2023-03-02T01:29:59.109Z,20.30
2023-03-02T01:32:29.242Z,21.23
2023-03-02T01:34:58.991Z,20.55
2023-03-02T01:37:28.853Z,20.38
2023-03-02T01:39:58.596Z,21.85
2023-03-02T01:42:28.380Z,21.73
2023-03-02T01:45:01.810Z,20.85
2023-03-02T01:47:36.666Z,20.77
2023-03-02T01:50:14.982Z,21.73
2023-03-02T01:52:45.397Z,19.95
2023-03-02T01:55:19.722Z,21.50
2023-03-02T01:57:54.587Z,20.90
2023-03-02T02:00:31.478Z,21.00
2023-03-02T02:03:08.963Z,19.98
2023-03-02T02:05:41.047Z,20.17
2023-03-02T02:08:11.715Z,20.95
2023-03-02T02:10:42.606Z,21.85
2023-03-02T02:13:13.424Z,21.73
2023-03-02T02:15:46.269Z,21.98
2023-03-02T02:18:15.982Z,22.42
2023-03-02T02:20:48.843Z,21.45
2023-03-02T02:23:29.479Z,21.02
2023-03-02T02:26:26.034Z,21.85
2023-03-02T02:29:01.058Z,20.52
2023-03-02T02:31:38.786Z,21.30
2023-03-02T02:34:15.139Z,22.20
2023-03-02T02:36:49.774Z,22.15
2023-03-02T02:39:24.502Z,22.05
2023-03-02T02:42:01.171Z,22.27
2023-03-02T02:44:31.106Z,21.90
2023-03-02T02:47:00.856Z,23.00
2023-03-02T02:49:35.176Z,23.00
2023-03-02T02:52:06.344Z,22.27
2023-03-02T02:54:38.991Z,23.13
2023-03-02T02:57:14.304Z,21.23
2023-03-02T02:59:47.740Z,23.13
2023-03-02T03:02:22.330Z,21.73
2023-03-02T03:04:52.242Z,23.20
2023-03-02T03:07:26.189Z,22.67
2023-03-02T03:10:03.778Z,21.45
2023-03-02T03:12:36.722Z,23.58
2023-03-02T03:15:07.784Z,22.90
2023-03-02T03:17:37.702Z,23.20
2023-03-02T03:20:09.429Z,23.48
2023-03-02T03:22:40.922Z,22.65
2023-03-02T03:25:15.581Z,22.48
2023-03-02T03:27:48.154Z,22.65
2023-03-02T03:30:18.677Z,24.40
2023-03-02T03:32:48.458Z,23.35
2023-03-02T03:35:18.392Z,24.60
2023-03-02T03:37:50.003Z,23.02
2023-03-02T03:40:19.809Z,22.48
2023-03-02T03:42:52.150Z,25.35
2023-03-02T03:45:22.062Z,23.58
2023-03-02T03:47:51.821Z,23.23
2023-03-02T03:50:21.778Z,21.98
2023-03-02T03:52:51.622Z,23.17
2023-03-02T03:55:22.169Z,23.20
2023-03-02T03:57:54.511Z,23.15
2023-03-02T04:00:25.781Z,24.40
2023-03-02T04:02:55.760Z,25.60
2023-03-02T04:05:25.825Z,23.08
2023-03-02T04:07:55.856Z,24.02
2023-03-02T04:10:25.622Z,23.80
2023-03-02T04:12:58.212Z,23.98
2023-03-02T04:15:28.260Z,25.25
2023-03-02T04:17:58.068Z,25.10
2023-03-02T04:20:29.168Z,23.92
2023-03-02T04:22:59.996Z,24.05
2023-03-02T04:25:32.052Z,23.98
2023-03-02T04:28:04.612Z,24.70
2023-03-02T04:30:35.492Z,25.15
2023-03-02T04:33:05.454Z,23.45
2023-03-02T04:35:37.311Z,24.20
2023-03-02T04:38:07.343Z,23.35
2023-03-02T04:40:37.252Z,24.50
2023-03-02T04:43:09.637Z,24.25
2023-03-02T04:45:39.869Z,24.77
2023-03-02T04:48:10.503Z,25.48
2023-03-02T04:50:40.964Z,23.55
2023-03-02T04:53:12.076Z,24.70
2023-03-02T04:55:42.572Z,24.00
2023-03-02T04:58:15.206Z,25.08
2023-03-02T05:00:45.268Z,24.00
2023-03-02T05:03:15.107Z,23.63
2023-03-02T05:05:44.907Z,25.17
2023-03-02T05:08:14.833Z,24.85
2023-03-02T05:10:44.564Z,24.60
2023-03-02T05:13:16.931Z,25.67
2023-03-02T05:15:46.898Z,25.10
2023-03-02T05:18:16.787Z,23.67
2023-03-02T05:20:46.919Z,23.40
2023-03-02T05:23:25.289Z,24.38
2023-03-02T05:25:57.250Z,24.40
2023-03-02T05:28:30.355Z,23.95
2023-03-02T05:31:00.184Z,24.92
2023-03-02T05:33:30.140Z,24.23
2023-03-02T05:36:00.574Z,24.08
2023-03-02T05:38:31.697Z,25.02
2023-03-02T05:41:01.789Z,24.58
2023-03-02T05:43:34.234Z,24.15
2023-03-02T05:46:04.207Z,24.95
2023-03-02T05:48:34.509Z,24.50
2023-03-02T05:51:04.416Z,25.08
2023-03-02T05:53:34.172Z,25.55
2023-03-02T05:56:04.148Z,24.60
2023-03-02T05:58:36.523Z,24.52
2023-03-02T06:01:13.554Z,24.58
2023-03-02T06:03:45.230Z,24.55
2023-03-02T06:06:16.114Z,24.13
2023-03-02T06:08:46.591Z,25.23
2023-03-02T06:11:16.571Z,25.13
2023-03-02T06:13:48.989Z,24.05
2023-03-02T06:16:18.784Z,23.90
2023-03-02T06:18:48.592Z,24.67
2023-03-02T06:21:18.556Z,24.48
2023-03-02T06:23:48.287Z,25.80
2023-03-02T06:26:18.106Z,24.23
2023-03-02T06:28:53.258Z,24.63
2023-03-02T06:31:24.248Z,25.35
2023-03-02T06:33:54.033Z,25.70
2023-03-02T06:36:23.847Z,24.67
2023-03-02T06:38:53.968Z,24.95
2023-03-02T06:41:24.236Z,25.40
2023-03-02T06:43:56.527Z,26.15
2023-03-02T06:46:26.396Z,25.92
2023-03-02T06:48:56.282Z,25.80
2023-03-02T06:51:26.172Z,23.58
2023-03-02T06:53:55.888Z,25.27
2023-03-02T06:56:25.897Z,22.52
2023-03-02T06:58:58.287Z,24.95
2023-03-02T07:01:33.134Z,23.38
2023-03-02T07:04:03.311Z,23.48
2023-03-02T07:06:33.162Z,23.58
2023-03-02T07:09:04.617Z,22.55
2023-03-02T07:11:34.716Z,23.50
2023-03-02T07:14:07.173Z,24.55
2023-03-02T07:16:37.658Z,22.58
2023-03-02T07:19:07.817Z,24.42
2023-03-02T07:21:37.600Z,22.90
2023-03-02T07:24:08.026Z,23.13
2023-03-02T07:26:37.899Z,21.27
2023-03-02T07:29:10.237Z,22.08
2023-03-02T07:31:40.082Z,22.17
2023-03-02T07:34:09.799Z,22.42
2023-03-02T07:36:39.614Z,22.25
2023-03-02T07:39:09.479Z,22.25
2023-03-02T07:41:39.287Z,23.58
2023-03-02T07:44:11.690Z,21.23
2023-03-02T07:46:41.599Z,22.60
2023-03-02T07:49:11.420Z,23.00
2023-03-02T07:51:41.140Z,23.00
2023-03-02T07:54:11.137Z,20.88
2023-03-02T07:56:40.934Z,21.55
2023-03-02T07:59:14.345Z,20.90
2023-03-02T08:01:44.205Z,20.93
2023-03-02T08:04:14.077Z,21.67
2023-03-02T08:06:43.788Z,20.90
2023-03-02T08:09:15.181Z,20.10
2023-03-02T08:11:47.829Z,21.48
2023-03-02T08:14:20.206Z,19.13
2023-03-02T08:16:49.992Z,20.17
2023-03-02T08:19:19.751Z,21.75
2023-03-02T08:21:49.556Z,20.40
2023-03-02T08:24:19.304Z,20.60
2023-03-02T08:26:49.037Z,19.98
2023-03-02T08:29:21.576Z,20.35
2023-03-02T08:31:51.506Z,19.65
2023-03-02T08:34:21.473Z,19.27
2023-03-02T08:36:51.239Z,19.45
2023-03-02T08:39:22.421Z,18.88
2023-03-02T08:41:53.142Z,18.33
2023-03-02T08:44:26.017Z,19.30
2023-03-02T08:46:55.831Z,19.13
2023-03-02T08:49:25.679Z,18.20
2023-03-02T08:51:56.464Z,18.48
2023-03-02T08:54:27.172Z,18.60
2023-03-02T08:56:56.978Z,19.65
2023-03-02T08:59:29.666Z,19.00
2023-03-02T09:02:01.610Z,20.23
2023-03-02T09:04:31.578Z,17.67
2023-03-02T09:07:01.511Z,19.80
2023-03-02T09:09:31.288Z,17.48
2023-03-02T09:12:01.081Z,18.08
2023-03-02T09:14:33.395Z,17.95
2023-03-02T09:17:03.731Z,16.52
2023-03-02T09:19:43.816Z,17.95
2023-03-02T09:22:14.210Z,18.05
2023-03-02T09:24:44.054Z,18.33
2023-03-02T09:27:13.845Z,18.45
2023-03-02T09:29:46.262Z,19.27
2023-03-02T09:32:16.397Z,15.85
2023-03-02T09:34:46.288Z,15.50
2023-03-02T09:37:16.059Z,15.15
2023-03-02T09:39:45.870Z,15.73
2023-03-02T09:42:44.730Z,15.15
2023-03-02T09:45:27.568Z,15.05
2023-03-02T09:48:12.918Z,17.15
2023-03-02T09:50:48.743Z,15.52
2023-03-02T09:53:36.828Z,16.42
2023-03-02T09:56:12.940Z,15.57
2023-03-02T09:58:45.642Z,14.90
2023-03-02T10:01:23.379Z,15.23
2023-03-02T10:03:58.956Z,16.30
2023-03-02T10:06:30.251Z,14.63
2023-03-02T10:09:00.293Z,14.63
2023-03-02T10:11:42.218Z,14.98
2023-03-02T10:14:18.000Z,14.90
2023-03-02T10:16:55.095Z,14.73
2023-03-02T10:19:29.608Z,14.45
2023-03-02T10:24:38.482Z,13.65
2023-03-02T10:27:19.129Z,13.20
2023-03-02T10:29:55.525Z,14.07
2023-03-02T10:32:31.908Z,14.07
2023-03-02T10:35:03.415Z,14.05
2023-03-02T10:37:33.785Z,15.55
2023-03-02T10:40:03.627Z,14.77
2023-03-02T10:42:40.307Z,14.65
2023-03-02T10:45:29.003Z,14.80
2023-03-02T10:48:09.448Z,14.20
2023-03-02T10:50:40.383Z,14.23
2023-03-02T10:53:11.095Z,14.48
2023-03-02T10:55:48.381Z,14.20
2023-03-02T10:58:32.404Z,13.85
2023-03-02T11:01:04.581Z,13.73
2023-03-02T11:03:37.321Z,15.15
2023-03-02T11:06:22.569Z,13.90
2023-03-02T11:09:01.779Z,13.85
2023-03-02T11:11:32.546Z,14.57
2023-03-02T11:14:12.155Z,15.40
2023-03-02T11:16:41.914Z,13.75
2023-03-02T11:19:18.850Z,15.02
2023-03-02T11:21:56.888Z,14.90
2023-03-02T11:24:32.464Z,13.57
2023-03-02T11:27:08.787Z,14.40
2023-03-02T11:29:44.335Z,14.30
2023-03-02T11:32:20.425Z,14.95
2023-03-02T11:34:56.999Z,15.13
2023-03-02T11:37:32.604Z,14.65
2023-03-02T11:40:22.515Z,14.98
2023-03-02T11:42:53.330Z,14.48
2023-03-02T11:45:27.341Z,15.02
2023-03-02T11:48:04.317Z,15.30
2023-03-02T11:50:42.457Z,13.68
2023-03-02T11:53:19.211Z,14.38
2023-03-02T11:55:51.354Z,14.77
2023-03-02T11:58:23.021Z,14.43
2023-03-02T12:00:54.084Z,13.77
2023-03-02T12:03:26.905Z,15.10
2023-03-02T12:06:09.025Z,14.75
2023-03-02T12:08:44.938Z,15.18
2023-03-02T12:11:36.495Z,13.85
2023-03-02T12:14:08.748Z,12.70
2023-03-02T12:16:41.750Z,14.05
2023-03-02T12:19:17.341Z,13.95
2023-03-02T12:22:00.004Z,14.02
2023-03-02T12:24:32.346Z,14.60
2023-03-02T12:27:06.235Z,13.95
2023-03-02T12:29:44.154Z,14.15
2023-03-02T12:32:24.283Z,14.35
2023-03-02T12:34:59.652Z,14.18
2023-03-02T12:37:35.768Z,13.10
2023-03-02T12:40:31.651Z,13.40
2023-03-02T12:43:17.224Z,13.52
2023-03-02T12:46:01.102Z,13.77
2023-03-02T12:48:34.055Z,14.57
2023-03-02T12:51:05.900Z,14.45
2023-03-02T12:53:39.774Z,13.68
2023-03-02T12:56:11.430Z,13.70
2023-03-02T12:58:41.279Z,14.43
2023-03-02T13:01:22.825Z,15.07
2023-03-02T13:03:53.033Z,14.18
2023-03-02T13:06:23.835Z,15.45
2023-03-02T13:09:00.048Z,15.55
2023-03-02T13:11:33.169Z,17.48
2023-03-02T13:14:04.243Z,14.35
2023-03-02T13:16:36.931Z,14.60
2023-03-02T13:19:15.234Z,14.02
2023-03-02T13:21:45.287Z,14.52
2023-03-02T13:24:49.640Z,14.27
2023-03-02T13:27:22.170Z,14.90
2023-03-02T13:29:53.108Z,15.13
2023-03-02T13:32:25.322Z,15.57
2023-03-02T13:34:56.954Z,14.38
2023-03-02T13:37:40.533Z,14.15
2023-03-02T13:40:36.112Z,14.05
2023-03-02T13:43:08.663Z,13.80
2023-03-02T13:45:39.085Z,14.15
2023-03-02T13:48:18.074Z,14.43
2023-03-02T13:50:56.156Z,14.90
2023-03-02T13:53:27.060Z,14.50
2023-03-02T13:56:01.373Z,15.00
2023-03-02T13:58:33.736Z,14.50
2023-03-02T14:01:03.576Z,14.93
2023-03-02T14:03:34.318Z,15.95
2023-03-02T14:06:05.989Z,14.95
2023-03-02T14:08:35.850Z,14.30
2023-03-02T14:11:09.237Z,15.35
2023-03-02T14:13:43.151Z,16.03
2023-03-02T14:16:15.943Z,15.00
2023-03-02T14:18:48.607Z,14.93
2023-03-02T14:21:20.800Z,14.60
2023-03-02T14:23:52.121Z,14.05
2023-03-02T14:26:34.395Z,14.63
2023-03-02T14:29:09.516Z,15.63
2023-03-02T14:31:39.335Z,14.82
2023-03-02T14:34:09.158Z,14.27
2023-03-02T14:36:39.074Z,15.48
2023-03-02T14:39:21.096Z,15.18
2023-03-02T14:41:55.071Z,15.13
2023-03-02T14:44:25.568Z,14.60
2023-03-02T14:46:57.076Z,13.90
2023-03-02T14:49:27.269Z,14.07
2023-03-02T14:52:02.765Z,13.60
2023-03-02T14:54:40.980Z,14.57
2023-03-02T14:57:20.790Z,14.60
2023-03-02T14:59:51.023Z,14.23
2023-03-02T15:02:25.759Z,15.25
2023-03-02T15:05:01.013Z,14.30
2023-03-02T15:07:31.468Z,15.15
2023-03-02T15:10:01.539Z,14.43
2023-03-02T15:12:33.930Z,14.90
2023-03-02T15:15:03.859Z,14.43
2023-03-02T15:17:34.600Z,14.48
2023-03-02T15:20:04.526Z,15.32
2023-03-02T15:22:35.581Z,15.77
2023-03-02T15:25:05.369Z,13.75
2023-03-02T15:27:37.730Z,14.27
2023-03-02T15:30:08.476Z,13.85
2023-03-02T15:32:39.824Z,14.38
2023-03-02T15:35:12.471Z,14.50
2023-03-02T15:37:42.488Z,14.00
2023-03-02T15:40:14.089Z,14.07
2023-03-02T15:42:46.434Z,14.68
2023-03-02T15:45:16.263Z,15.07
2023-03-02T15:47:46.041Z,13.60
2023-03-02T15:50:15.842Z,15.48
2023-03-02T15:52:45.579Z,13.70
2023-03-02T15:55:16.234Z,14.23
2023-03-02T15:57:48.572Z,14.23
2023-03-02T16:00:20.079Z,16.50
2023-03-02T16:02:52.108Z,13.70
2023-03-02T16:05:22.041Z,14.48
2023-03-02T16:07:51.782Z,14.63
2023-03-02T16:10:24.837Z,14.73
2023-03-02T16:12:57.213Z,14.45
2023-03-02T16:15:27.631Z,14.70
2023-03-02T16:17:57.494Z,14.10
2023-03-02T16:20:27.332Z,14.30
2023-03-02T16:22:57.731Z,13.90
2023-03-02T16:25:28.958Z,14.27
2023-03-02T16:28:01.359Z,16.17
2023-03-02T16:30:31.316Z,13.88
2023-03-02T16:33:02.419Z,14.57
2023-03-02T16:35:33.906Z,13.90
2023-03-02T16:38:03.951Z,15.15
2023-03-02T16:40:33.964Z,14.02
2023-03-02T16:43:08.845Z,15.07
2023-03-02T16:45:39.006Z,17.15
2023-03-02T16:48:09.647Z,20.73
2023-03-02T16:50:39.919Z,21.83
2023-03-02T16:53:09.724Z,15.05
2023-03-02T16:55:39.492Z,14.05
2023-03-02T16:58:11.871Z,14.00
2023-03-02T17:00:42.580Z,15.18
2023-03-02T17:03:12.798Z,17.45
2023-03-02T17:05:43.606Z,16.15
2023-03-02T17:08:13.858Z,17.63
2023-03-02T17:10:44.601Z,18.70
2023-03-02T17:13:17.989Z,19.15
2023-03-02T17:15:47.900Z,18.98
2023-03-02T17:18:17.750Z,18.63
2023-03-02T17:20:47.514Z,18.10
2023-03-02T17:23:17.263Z,17.58
2023-03-02T17:25:47.099Z,17.65
2023-03-02T17:28:19.534Z,19.05
2023-03-02T17:30:49.440Z,16.52
2023-03-02T17:33:19.428Z,18.25
2023-03-02T17:35:50.143Z,17.48
2023-03-02T17:38:20.141Z,16.85
2023-03-02T17:40:50.005Z,17.67
2023-03-02T17:43:22.379Z,17.58
2023-03-02T17:45:52.138Z,18.63
2023-03-02T17:48:22.012Z,17.65
2023-03-02T17:50:51.808Z,16.80
2023-03-02T17:53:21.554Z,17.63
2023-03-02T17:55:51.272Z,16.95
2023-03-02T17:58:25.266Z,17.70
2023-03-02T18:00:56.448Z,17.80
2023-03-02T18:03:26.355Z,18.50
2023-03-02T18:05:56.187Z,18.45
2023-03-02T18:08:26.639Z,20.45
2023-03-02T18:10:56.446Z,19.13
2023-03-02T18:13:28.795Z,20.42
2023-03-02T18:15:58.836Z,20.52
2023-03-02T18:18:31.387Z,22.08
2023-03-02T18:21:01.582Z,25.50
2023-03-02T18:23:33.652Z,20.60
2023-03-02T18:26:03.457Z,21.50
2023-03-02T18:28:35.818Z,23.67
2023-03-02T18:31:05.907Z,23.25
2023-03-02T18:33:36.103Z,20.58
2023-03-02T18:36:06.846Z,18.67
2023-03-02T18:38:37.467Z,19.75
2023-03-02T18:41:09.497Z,19.38
2023-03-02T18:43:43.904Z,17.95
2023-03-02T18:46:21.239Z,19.30
2023-03-02T18:48:52.300Z,18.42
2023-03-02T18:51:23.688Z,19.15
2023-03-02T18:53:54.122Z,20.63
2023-03-02T18:56:24.433Z,19.65
2023-03-02T18:58:56.812Z,19.45
2023-03-02T19:01:26.544Z,19.83
2023-03-02T19:03:57.590Z,20.92
2023-03-02T19:06:27.450Z,20.58
2023-03-02T19:08:57.383Z,19.80
2023-03-02T19:11:27.451Z,21.15
2023-03-02T19:13:59.885Z,21.13
2023-03-02T19:16:30.118Z,23.75
2023-03-02T19:18:59.963Z,23.02
2023-03-02T19:21:30.119Z,21.77
2023-03-02T19:24:01.677Z,22.77
2023-03-02T19:26:31.709Z,21.20
2023-03-02T19:29:04.074Z,21.80
2023-03-02T19:31:34.091Z,21.42
2023-03-02T19:34:05.008Z,21.30
2023-03-02T19:36:34.817Z,20.83
2023-03-02T19:39:04.547Z,21.00
2023-03-02T19:41:34.458Z,20.00
2023-03-02T19:44:07.232Z,21.40
2023-03-02T19:46:36.935Z,21.90
2023-03-02T19:49:06.862Z,19.65
2023-03-02T19:51:36.633Z,20.52
2023-03-02T19:54:06.637Z,20.73
2023-03-02T19:56:40.154Z,22.05
2023-03-02T19:59:13.053Z,21.40
2023-03-02T20:01:42.845Z,23.95
2023-03-02T20:04:12.592Z,21.85
2023-03-02T20:06:42.378Z,20.83
2023-03-02T20:09:14.420Z,22.45
2023-03-02T20:11:44.572Z,22.90
2023-03-02T20:14:32.698Z,21.92
2023-03-02T20:17:03.362Z,22.40
2023-03-02T20:19:33.303Z,23.55
2023-03-02T20:22:03.739Z,23.00
2023-03-02T20:24:33.474Z,21.58
2023-03-02T20:27:03.415Z,22.90
2023-03-02T20:29:36.119Z,22.10
2023-03-02T20:32:08.887Z,21.77
2023-03-02T20:34:38.951Z,23.67
2023-03-02T20:37:09.518Z,22.85
2023-03-02T20:39:41.617Z,23.23
2023-03-02T20:42:11.801Z,22.35
2023-03-02T20:44:44.957Z,23.67
2023-03-02T20:47:16.719Z,24.38
2023-03-02T20:49:47.080Z,23.83
2023-03-02T20:52:16.859Z,23.25
2023-03-02T20:54:46.835Z,23.25
2023-03-02T20:57:19.381Z,23.15
2023-03-02T20:59:52.192Z,24.13
2023-03-02T21:02:23.178Z,22.40
2023-03-02T21:04:53.362Z,22.92
2023-03-02T21:07:23.320Z,23.77
2023-03-02T21:09:53.127Z,23.50
2023-03-02T21:12:23.039Z,24.38
2023-03-02T21:14:55.515Z,23.30
2023-03-02T21:17:25.752Z,24.13
2023-03-02T21:19:55.756Z,23.70
2023-03-02T21:22:25.464Z,24.20
2023-03-02T21:24:55.522Z,24.23
2023-03-02T21:27:25.423Z,24.73
2023-03-02T21:29:57.803Z,24.80
2023-03-02T21:32:27.685Z,25.23
2023-03-02T21:34:57.487Z,22.17
2023-03-02T21:37:27.435Z,23.95
2023-03-02T21:39:58.893Z,25.10
2023-03-02T21:42:28.751Z,24.85
2023-03-02T21:45:02.082Z,25.45
2023-03-02T21:47:31.900Z,25.35
2023-03-02T21:50:01.650Z,24.55
2023-03-02T21:52:31.478Z,25.80
2023-03-02T21:55:01.271Z,23.55
2023-03-02T21:57:31.050Z,24.95
2023-03-02T22:00:04.636Z,24.98
2023-03-02T22:02:34.978Z,23.02
2023-03-02T22:05:04.722Z,25.30
2023-03-02T22:07:34.502Z,25.45
2023-03-02T22:10:04.284Z,25.50
2023-03-02T22:12:34.706Z,25.52
2023-03-02T22:15:15.688Z,26.25
2023-03-02T22:17:47.459Z,25.63
2023-03-02T22:20:20.648Z,25.48
2023-03-02T22:22:54.518Z,26.42
2023-03-02T22:25:24.481Z,25.67
2023-03-02T22:27:54.344Z,25.77
2023-03-02T22:30:28.695Z,26.92
2023-03-02T22:35:30.485Z,26.67
2023-03-02T22:38:05.212Z,25.75
2023-03-02T22:40:36.739Z,26.65
2023-03-02T22:43:16.868Z,24.65
2023-03-02T22:45:49.167Z,25.77
2023-03-02T22:48:20.532Z,27.80
2023-03-02T22:50:52.642Z,25.75
2023-03-02T22:53:31.763Z,26.88
2023-03-02T22:56:04.164Z,26.75
2023-03-02T22:58:46.398Z,26.50
2023-03-02T23:01:23.465Z,27.30
2023-03-02T23:03:55.191Z,27.15
2023-03-02T23:06:33.181Z,27.75
2023-03-02T23:09:04.605Z,28.15
2023-03-02T23:11:38.565Z,27.15
2023-03-02T23:14:17.202Z,28.17
2023-03-02T23:16:54.093Z,28.08
2023-03-02T23:19:24.165Z,27.73
2023-03-02T23:21:53.992Z,27.55
2023-03-02T23:24:23.770Z,26.90
2023-03-02T23:26:55.218Z,25.58
2023-03-02T23:29:25.266Z,27.13
2023-03-02T23:31:58.124Z,27.52
2023-03-02T23:34:31.149Z,27.35
2023-03-02T23:37:01.615Z,27.33
2023-03-02T23:39:31.451Z,29.08
2023-03-02T23:42:01.272Z,28.15
2023-03-02T23:44:31.126Z,26.50
2023-03-02T23:47:04.010Z,27.65
2023-03-02T23:49:33.826Z,28.00
2023-03-02T23:52:03.595Z,29.08
2023-03-02T23:54:33.335Z,27.98
2023-03-02T23:57:03.114Z,27.23
2023-03-02T23:59:32.842Z,27.80
